^^
Your Local Weather - Clay, NY Station Historical Data
Daily Summary for April 29, 2017 Units:  Metric    English   Both
« Previous Day
Next Day »
Daily Weekly Monthly Yearly Custom
  High: Low: Average:
Temperature: 15.3 °C 7.1 °C 13.1 °C
Dew Point: 11.8 °C 0.9 °C 7.1 °C
Humidity: 82% 51% 68%
Wind Speed: 8km/h 0km/h 1.8km/h
Wind Gust: 9.7km/h - -
Wind- - WNW
Pressure: 1022.9 hPa 1012.4 hPa -
Precipitation: 0 mm    
Historical Graphs
 
 
Tabular Data for April 29, 2017
Time Temperature Dew Point Pressure Wind Wind Speed Wind Gust Humidity Rainfall Rate (Hourly) solar
00:00 13.8 °C 9.9 °C 1013.8 hPa Calm     77% 0 mm 0 W/m2
00:06 13.7 °C 9.6 °C 1013.8 hPa Calm     76% 0 mm 0 W/m2
00:12 13.8 °C 9.4 °C 1014.1 hPa Calm     75% 0 mm 0 W/m2
00:18 13.8 °C 9.7 °C 1014.1 hPa Calm     76% 0 mm 0 W/m2
00:26 13.8 °C 9.7 °C 1014.1 hPa Calm     76% 0 mm 0 W/m2
00:32 13.9 °C 9.9 °C 1013.8 hPa Calm     77% 0 mm 0 W/m2
00:38 13.8 °C 10.3 °C 1014.1 hPa Calm     79% 0 mm 0 W/m2
00:44 13.8 °C 10.2 °C 1014.1 hPa Calm     79% 0 mm 0 W/m2
00:50 13.7 °C 10.2 °C 1014.1 hPa Calm     79% 0 mm 0 W/m2
00:56 13.7 °C 9.9 °C 1013.8 hPa Calm     78% 0 mm 0 W/m2
01:02 13.7 °C 10.3 °C 1013.8 hPa Calm     80% 0 mm 0 W/m2
01:08 13.7 °C 10.5 °C 1013.8 hPa Calm     81% 0 mm 0 W/m2
01:13 13.6 °C 10.2 °C 1013.8 hPa Calm     80% 0 mm 0 W/m2
01:20 13.6 °C 10.4 °C 1013.4 hPa Calm     81% 0 mm 0 W/m2
01:25 13.7 °C 10.4 °C 1013.4 hPa Calm     81% 0 mm 0 W/m2
01:32 13.7 °C 10.4 °C 1013.4 hPa Calm     81% 0 mm 0 W/m2
01:38 13.7 °C 10.5 °C 1013.1 hPa Calm     81% 0 mm 0 W/m2
01:45 13.7 °C 10.7 °C 1013.1 hPa Calm     82% 0 mm 0 W/m2
01:52 13.8 °C 10.8 °C 1013.1 hPa Calm     82% 0 mm 0 W/m2
01:58 13.8 °C 10.6 °C 1013.1 hPa Calm     81% 0 mm 0 W/m2
02:04 13.7 °C 10.7 °C 1013.1 hPa Calm     82% 0 mm 0 W/m2
02:10 13.8 °C 10.6 °C 1013.1 hPa Calm     81% 0 mm 0 W/m2
02:16 13.8 °C 10.6 °C 1013.4 hPa Calm     81% 0 mm 0 W/m2
02:22 13.9 °C 10.7 °C 1013.4 hPa Calm     81% 0 mm 0 W/m2
02:28 14 °C 10.6 °C 1013.4 hPa Calm     80% 0 mm 0 W/m2
02:33 14.1 °C 10.7 °C 1013.4 hPa Calm     80% 0 mm 0 W/m2
02:40 14.1 °C 10.5 °C 1013.1 hPa Calm     79% 0 mm 0 W/m2
02:45 14.3 °C 11.3 °C 1013.1 hPa Calm     82% 0 mm 0 W/m2
02:52 14.3 °C 11.1 °C 1013.1 hPa Calm     81% 0 mm 0 W/m2
02:58 14.4 °C 10.8 °C 1013.1 hPa Calm     79% 0 mm 0 W/m2
03:04 14.6 °C 11 °C 1012.8 hPa Calm     79% 0 mm 0 W/m2
03:10 14.6 °C 10.4 °C 1013.1 hPa Calm     76% 0 mm 0 W/m2
03:16 14.8 °C 10.8 °C 1013.1 hPa Calm     77% 0 mm 0 W/m2
03:22 14.9 °C 10.9 °C 1013.1 hPa Calm     77% 0 mm 0 W/m2
03:28 14.9 °C 10.9 °C 1013.1 hPa Calm     77% 0 mm 0 W/m2
03:34 14.9 °C 11.2 °C 1013.1 hPa Calm   3.2 km/h 78% 0 mm 0 W/m2
03:40 15 °C 11.4 °C 1012.8 hPa Calm     79% 0 mm 0 W/m2
03:46 15 °C 11.8 °C 1012.4 hPa Calm     81% 0 mm 0 W/m2
03:52 14.8 °C 11.4 °C 1012.4 hPa Calm     80% 0 mm 0 W/m2
03:58 14.8 °C 11.3 °C 1012.8 hPa Calm     80% 0 mm 0 W/m2
04:04 14.7 °C 10.9 °C 1012.4 hPa Calm     78% 0 mm 0 W/m2
04:10 14.7 °C 11.1 °C 1012.4 hPa Calm     79% 0 mm 0 W/m2
04:15 14.8 °C 11.2 °C 1012.4 hPa Calm     79% 0 mm 0 W/m2
04:22 14.7 °C 10.9 °C 1012.8 hPa Calm     78% 0 mm 0 W/m2
04:28 14.7 °C 10.7 °C 1012.8 hPa Calm     77% 0 mm 0 W/m2
04:34 14.8 °C 11 °C 1012.4 hPa Calm     78% 0 mm 0 W/m2
04:40 14.8 °C 10.8 °C 1012.8 hPa Calm     77% 0 mm 0 W/m2
04:46 14.9 °C 10.9 °C 1012.8 hPa Calm     77% 0 mm 0 W/m2
04:52 14.9 °C 11.2 °C 1013.1 hPa Calm     78% 0 mm 0 W/m2
04:58 14.9 °C 10.9 °C 1013.1 hPa Calm     77% 0 mm 0 W/m2
05:04 15 °C 11.2 °C 1013.1 hPa Calm     78% 0 mm 0 W/m2
05:10 15.1 °C 11.4 °C 1013.1 hPa Calm     79% 0 mm 0 W/m2
05:15 15.1 °C 11.2 °C 1013.1 hPa Calm     78% 0 mm 0 W/m2
05:22 15.1 °C 11.5 °C 1013.1 hPa Calm     79% 0 mm 0 W/m2
05:28 15.1 °C 11.5 °C 1013.1 hPa Calm     79% 0 mm 0 W/m2
05:34 15.1 °C 11.2 °C 1013.1 hPa Calm     78% 0 mm 0 W/m2
05:40 15.1 °C 11.4 °C 1013.1 hPa Calm     79% 0 mm 0 W/m2
05:46 15 °C 11.2 °C 1013.1 hPa Calm     78% 0 mm 0 W/m2
05:52 15 °C 11.2 °C 1013.1 hPa Calm     78% 0 mm 0 W/m2
05:58 14.9 °C 11.2 °C 1013.1 hPa Calm     78% 0 mm 0 W/m2
06:04 14.9 °C 11.3 °C 1013.1 hPa Calm   1.6 km/h 79% 0 mm 0 W/m2
06:10 14.9 °C 11.1 °C 1013.1 hPa Calm   3.2 km/h 78% 0 mm 0 W/m2
06:14 14.9 °C 10.7 °C 1013.1 hPa NNW 1.6 km/h 3.2 km/h 76% 0 mm 0 W/m2
06:20 15.1 °C 10.4 °C 1013.1 hPa NNW 1.6 km/h 1.6 km/h 74% 0 mm 5 W/m2
06:25 15.2 °C 10.2 °C 1013.1 hPa Calm   1.6 km/h 72% 0 mm 5 W/m2
06:32 15.2 °C 10.2 °C 1013.4 hPa Calm     72% 0 mm 5 W/m2
06:38 15.3 °C 10.1 °C 1013.4 hPa Calm     71% 0 mm 0 W/m2
06:44 15.3 °C 10.3 °C 1013.4 hPa Calm     72% 0 mm 7 W/m2
06:50 15.3 °C 10.4 °C 1013.4 hPa Calm     73% 0 mm 11 W/m2
06:56 15.2 °C 10.6 °C 1013.4 hPa Calm     74% 0 mm 14 W/m2
07:02 15.2 °C 10.9 °C 1013.4 hPa Calm     76% 0 mm 18 W/m2
07:08 15.1 °C 11.1 °C 1013.8 hPa Calm   1.6 km/h 77% 0 mm 21 W/m2
07:14 15.1 °C 10.7 °C 1014.1 hPa NW 1.6 km/h 8 km/h 75% 0 mm 26 W/m2
07:20 15.2 °C 10.3 °C 1014.1 hPa NW 3.2 km/h 4.8 km/h 73% 0 mm 25 W/m2
07:26 15.1 °C 10.1 °C 1014.1 hPa NW 4.8 km/h 6.4 km/h 72% 0 mm 18 W/m2
07:32 14.9 °C 9.9 °C 1014.1 hPa NNW 4.8 km/h 8 km/h 72% 0 mm 44 W/m2
07:38 14.7 °C 9.3 °C 1013.8 hPa North 6.4 km/h 9.7 km/h 70% 0 mm 42 W/m2
07:44 14.4 °C 9.2 °C 1014.1 hPa North 8 km/h 8 km/h 71% 0 mm 30 W/m2
07:50 14.1 °C 8.7 °C 1014.4 hPa North 8 km/h 8 km/h 70% 0 mm 40 W/m2
07:56 13.9 °C 8.8 °C 1014.8 hPa NW 4.8 km/h 8 km/h 71% 0 mm 37 W/m2
08:02 13.8 °C 9.1 °C 1014.8 hPa NW 3.2 km/h 3.2 km/h 73% 0 mm 39 W/m2
08:08 13.8 °C 8.8 °C 1015.1 hPa NW 1.6 km/h 4.8 km/h 72% 0 mm 49 W/m2
08:14 13.7 °C 8.8 °C 1015.1 hPa NW 1.6 km/h 1.6 km/h 72% 0 mm 54 W/m2
08:20 13.6 °C 8.8 °C 1015.1 hPa WNW 1.6 km/h 1.6 km/h 73% 0 mm 51 W/m2
08:26 13.6 °C 8.8 °C 1015.1 hPa NW 3.2 km/h 4.8 km/h 73% 0 mm 58 W/m2
08:32 13.5 °C 8.8 °C 1015.1 hPa NW 1.6 km/h 3.2 km/h 73% 0 mm 58 W/m2
08:38 13.5 °C 8.8 °C 1015.5 hPa NW 1.6 km/h 3.2 km/h 73% 0 mm 77 W/m2
08:46 13.7 °C 8.9 °C 1015.1 hPa NW 1.6 km/h 4.8 km/h 73% 0 mm 113 W/m2
08:52 13.8 °C 9.1 °C 1015.5 hPa Calm   6.4 km/h 73% 0 mm 88 W/m2
08:58 13.9 °C 8.8 °C 1015.5 hPa SSW 1.6 km/h 6.4 km/h 71% 0 mm 88 W/m2
09:04 14.1 °C 8.9 °C 1015.5 hPa NW 1.6 km/h 4.8 km/h 71% 0 mm 142 W/m2
09:09 14.2 °C 9 °C 1015.5 hPa WSW 1.6 km/h 1.6 km/h 71% 0 mm 162 W/m2
09:16 14.3 °C 8.9 °C 1015.5 hPa NW 1.6 km/h 4.8 km/h 70% 0 mm 172 W/m2
09:22 14.5 °C 9.1 °C 1015.8 hPa SSW 1.6 km/h 1.6 km/h 70% 0 mm 165 W/m2
09:28 14.6 °C 8.7 °C 1015.8 hPa WNW 1.6 km/h 6.4 km/h 68% 0 mm 162 W/m2
09:34 14.6 °C 8.9 °C 1015.8 hPa NW 1.6 km/h 3.2 km/h 69% 0 mm 156 W/m2
09:40 14.6 °C 8.7 °C 1015.8 hPa WSW 1.6 km/h 1.6 km/h 68% 0 mm 146 W/m2
09:46 14.6 °C 8.8 °C 1015.8 hPa NNW 1.6 km/h 3.2 km/h 68% 0 mm 102 W/m2
09:52 14.6 °C 8.8 °C 1016.1 hPa NNW 1.6 km/h 1.6 km/h 68% 0 mm 84 W/m2
09:58 14.6 °C 8.7 °C 1015.8 hPa NNW 1.6 km/h 3.2 km/h 68% 0 mm 135 W/m2
10:04 14.6 °C 8.8 °C 1015.8 hPa NW 1.6 km/h 3.2 km/h 68% 0 mm 156 W/m2
10:10 14.7 °C 9.1 °C 1016.1 hPa NW 1.6 km/h 4.8 km/h 69% 0 mm 176 W/m2
10:16 14.7 °C 8.9 °C 1016.1 hPa WSW 1.6 km/h 4.8 km/h 68% 0 mm 134 W/m2
10:22 14.8 °C 9.2 °C 1016.1 hPa West 1.6 km/h 1.6 km/h 69% 0 mm 132 W/m2
10:28 14.7 °C 8.9 °C 1016.1 hPa WNW 1.6 km/h 1.6 km/h 68% 0 mm 93 W/m2
10:34 14.7 °C 9.1 °C 1016.1 hPa WNW 1.6 km/h 1.6 km/h 69% 0 mm 132 W/m2
10:40 14.7 °C 9.1 °C 1016.1 hPa West 1.6 km/h 3.2 km/h 69% 0 mm 199 W/m2
10:46 14.7 °C 8.9 °C 1016.5 hPa NW 4.8 km/h 4.8 km/h 68% 0 mm 167 W/m2
10:52 14.7 °C 9.1 °C 1016.1 hPa West 4.8 km/h 4.8 km/h 69% 0 mm 169 W/m2
10:58 14.7 °C 8.8 °C 1016.1 hPa West 3.2 km/h 4.8 km/h 68% 0 mm 248 W/m2
11:06 14.8 °C 9.2 °C 1016.5 hPa WSW 3.2 km/h 3.2 km/h 69% 0 mm 141 W/m2
11:12 14.6 °C 8.8 °C 1016.8 hPa WNW 3.2 km/h 4.8 km/h 68% 0 mm 98 W/m2
11:18 14.4 °C 8.6 °C 1016.8 hPa WNW 3.2 km/h 6.4 km/h 68% 0 mm 118 W/m2
11:24 14.4 °C 8.4 °C 1016.8 hPa NW 3.2 km/h 4.8 km/h 67% 0 mm 144 W/m2
11:29 14.5 °C 8.7 °C 1016.5 hPa NW 3.2 km/h 3.2 km/h 68% 0 mm 127 W/m2
11:36 14.6 °C 8.5 °C 1016.5 hPa WSW 1.6 km/h 6.4 km/h 67% 0 mm 151 W/m2
11:42 14.7 °C 8.6 °C 1016.5 hPa WSW 1.6 km/h 3.2 km/h 67% 0 mm 160 W/m2
11:48 14.7 °C 8.6 °C 1016.5 hPa SW 3.2 km/h 3.2 km/h 67% 0 mm 118 W/m2
11:54 14.7 °C 8.8 °C 1016.5 hPa NW 3.2 km/h 4.8 km/h 68% 0 mm 132 W/m2
12:00 14.7 °C 8.7 °C 1016.5 hPa West 1.6 km/h 6.4 km/h 67% 0 mm 153 W/m2
12:06 14.7 °C 8.6 °C 1016.5 hPa WNW 1.6 km/h 6.4 km/h 67% 0 mm 179 W/m2
12:12 14.7 °C 8.6 °C 1016.5 hPa West 1.6 km/h 4.8 km/h 67% 0 mm 193 W/m2
12:18 14.7 °C 8.7 °C 1016.1 hPa West 1.6 km/h 4.8 km/h 67% 0 mm 237 W/m2
12:24 14.8 °C 9.2 °C 1016.1 hPa NW 1.6 km/h 6.4 km/h 69% 0 mm 230 W/m2
12:30 14.7 °C 8.9 °C 1016.1 hPa NNW 3.2 km/h 3.2 km/h 68% 0 mm 193 W/m2
12:36 14.7 °C 8.6 °C 1016.1 hPa NNW 1.6 km/h 3.2 km/h 67% 0 mm 209 W/m2
12:40 14.7 °C 8.4 °C 1016.1 hPa West 1.6 km/h 3.2 km/h 66% 0 mm 174 W/m2
12:46 14.6 °C 8.3 °C 1015.8 hPa WNW 3.2 km/h 3.2 km/h 66% 0 mm 241 W/m2
12:52 14.5 °C 8.2 °C 1016.1 hPa WSW 1.6 km/h 1.6 km/h 66% 0 mm 195 W/m2
12:58 14.5 °C 8.2 °C 1016.1 hPa NW 3.2 km/h 3.2 km/h 66% 0 mm 181 W/m2
13:04 14.5 °C 8.2 °C 1015.8 hPa WNW 3.2 km/h 3.2 km/h 66% 0 mm 197 W/m2
13:10 14.6 °C 8.6 °C 1015.8 hPa WNW 1.6 km/h 1.6 km/h 67% 0 mm 195 W/m2
13:16 14.7 °C 8.7 °C 1015.8 hPa WNW 1.6 km/h 3.2 km/h 67% 0 mm 230 W/m2
13:22 14.9 °C 8.8 °C 1015.8 hPa NW 1.6 km/h 3.2 km/h 67% 0 mm 255 W/m2
13:28 14.9 °C 8.4 °C 1015.8 hPa NW 1.6 km/h 4.8 km/h 65% 0 mm 244 W/m2
13:34 14.9 °C 8.6 °C 1015.8 hPa WNW 3.2 km/h 3.2 km/h 66% 0 mm 265 W/m2
13:40 15 °C 8.7 °C 1016.1 hPa NW 3.2 km/h 4.8 km/h 66% 0 mm 271 W/m2
13:46 15.1 °C 8.7 °C 1016.1 hPa WNW 4.8 km/h 8 km/h 66% 0 mm 295 W/m2
13:52 15 °C 8.7 °C 1016.1 hPa WNW 4.8 km/h 4.8 km/h 66% 0 mm 311 W/m2
13:58 14.9 °C 8.6 °C 1016.5 hPa NNW 4.8 km/h 8 km/h 66% 0 mm 251 W/m2
14:04 14.7 °C 8.2 °C 1016.8 hPa WNW 4.8 km/h 4.8 km/h 65% 0 mm 230 W/m2
14:10 14.3 °C 7.8 °C 1016.8 hPa NW 4.8 km/h 4.8 km/h 65% 0 mm 221 W/m2
14:16 14.2 °C 7.7 °C 1016.8 hPa NNW 4.8 km/h 6.4 km/h 65% 0 mm 258 W/m2
14:22 13.7 °C 7.3 °C 1017.2 hPa WNW 6.4 km/h 6.4 km/h 65% 0 mm 287 W/m2
14:28 13.5 °C 7.1 °C 1017.5 hPa WNW 8 km/h 8 km/h 65% 0 mm 274 W/m2
14:34 13.3 °C 6.4 °C 1017.8 hPa NW 6.4 km/h 6.4 km/h 63% 0 mm 244 W/m2
14:40 13.2 °C 6.3 °C 1017.8 hPa NNW 6.4 km/h 8 km/h 63% 0 mm 236 W/m2
14:46 13.1 °C 6.2 °C 1018.2 hPa WNW 4.8 km/h 8 km/h 63% 0 mm 193 W/m2
14:52 12.9 °C 5.6 °C 1018.5 hPa West 4.8 km/h 9.7 km/h 61% 0 mm 155 W/m2
14:58 12.7 °C 5.4 °C 1018.5 hPa West 6.4 km/h 9.7 km/h 61% 0 mm 141 W/m2
15:04 12.8 °C 5.7 °C 1018.5 hPa West 3.2 km/h 4.8 km/h 62% 0 mm 141 W/m2
15:10 12.9 °C 5.6 °C 1018.8 hPa WSW 3.2 km/h 3.2 km/h 61% 0 mm 132 W/m2
15:16 12.9 °C 5.1 °C 1018.5 hPa West 4.8 km/h 4.8 km/h 59% 0 mm 127 W/m2
15:22 12.9 °C 5.3 °C 1018.5 hPa NW 3.2 km/h 4.8 km/h 60% 0 mm 127 W/m2
15:28 13.1 °C 5.4 °C 1018.5 hPa WSW 3.2 km/h 6.4 km/h 60% 0 mm 130 W/m2
15:34 13.2 °C 5.6 °C 1018.5 hPa WNW 4.8 km/h 9.7 km/h 60% 0 mm 120 W/m2
15:40 13.3 °C 5.7 °C 1018.5 hPa West 4.8 km/h 9.7 km/h 60% 0 mm 88 W/m2
15:46 13.3 °C 5.7 °C 1018.8 hPa West 4.8 km/h 9.7 km/h 60% 0 mm 60 W/m2
15:52 13.3 °C 5.9 °C 1018.8 hPa WNW 3.2 km/h 4.8 km/h 61% 0 mm 56 W/m2
15:58 13.3 °C 5.7 °C 1018.8 hPa NNW 3.2 km/h 8 km/h 60% 0 mm 56 W/m2
16:04 13.3 °C 5.7 °C 1018.8 hPa WSW 3.2 km/h 4.8 km/h 60% 0 mm 54 W/m2
16:10 13.3 °C 6.2 °C 1018.8 hPa West 3.2 km/h 3.2 km/h 62% 0 mm 56 W/m2
16:16 13.3 °C 5.7 °C 1018.8 hPa WNW 1.6 km/h 3.2 km/h 60% 0 mm 63 W/m2
16:22 13.3 °C 5.9 °C 1018.8 hPa WNW 3.2 km/h 3.2 km/h 61% 0 mm 70 W/m2
16:28 13.4 °C 6.3 °C 1018.8 hPa NW 3.2 km/h 3.2 km/h 62% 0 mm 72 W/m2
16:34 13.2 °C 5.6 °C 1018.8 hPa NW 3.2 km/h 4.8 km/h 60% 0 mm 76 W/m2
16:40 12.9 °C 5.6 °C 1018.8 hPa NNW 3.2 km/h 3.2 km/h 61% 0 mm 69 W/m2
16:46 12.7 °C 5.2 °C 1018.8 hPa WNW 3.2 km/h 6.4 km/h 60% 0 mm 54 W/m2
16:52 12.6 °C 5.5 °C 1018.8 hPa WNW 3.2 km/h 3.2 km/h 62% 0 mm 67 W/m2
16:58 12.3 °C 5.3 °C 1018.5 hPa NNW 4.8 km/h 8 km/h 62% 0 mm 58 W/m2
17:04 12.1 °C 5.3 °C 1018.5 hPa NNW 4.8 km/h 6.4 km/h 63% 0 mm 84 W/m2
17:10 11.8 °C 4.5 °C 1018.5 hPa NNW 6.4 km/h 8 km/h 61% 0 mm 100 W/m2
17:15 11.6 °C 4.5 °C 1018.5 hPa NNW 6.4 km/h 9.7 km/h 62% 0 mm 76 W/m2
17:22 11.4 °C 4.4 °C 1018.5 hPa WNW 4.8 km/h 4.8 km/h 62% 0 mm 67 W/m2
17:28 11.4 °C 4.6 °C 1018.5 hPa NW 3.2 km/h 4.8 km/h 63% 0 mm 65 W/m2
17:34 11.4 °C 4.8 °C 1018.5 hPa NW 3.2 km/h 3.2 km/h 64% 0 mm 81 W/m2
17:40 11.4 °C 4.4 °C 1018.5 hPa NW 3.2 km/h 3.2 km/h 62% 0 mm 93 W/m2
17:46 11.6 °C 4.7 °C 1018.5 hPa NNW 3.2 km/h 3.2 km/h 63% 0 mm 104 W/m2
17:52 11.7 °C 4.4 °C 1018.5 hPa NW 3.2 km/h 6.4 km/h 61% 0 mm 86 W/m2
17:58 11.7 °C 4.4 °C 1018.5 hPa NW 1.6 km/h 6.4 km/h 61% 0 mm 60 W/m2
18:04 11.7 °C 4.4 °C 1018.5 hPa WNW 1.6 km/h 3.2 km/h 61% 0 mm 60 W/m2
18:09 11.6 °C 3.6 °C 1018.5 hPa West 3.2 km/h 3.2 km/h 58% 0 mm 44 W/m2
18:16 11.6 °C 3.6 °C 1018.5 hPa WSW 3.2 km/h 4.8 km/h 58% 0 mm 28 W/m2
18:22 11.4 °C 2.9 °C 1018.8 hPa West 3.2 km/h 6.4 km/h 56% 0 mm 25 W/m2
18:28 11.3 °C 2.6 °C 1018.8 hPa WNW 3.2 km/h 6.4 km/h 55% 0 mm 25 W/m2
18:34 11.2 °C 2.2 °C 1018.8 hPa NW 3.2 km/h 4.8 km/h 54% 0 mm 25 W/m2
18:39 11.2 °C 1.9 °C 1018.8 hPa WNW 3.2 km/h 4.8 km/h 53% 0 mm 25 W/m2
18:46 11.2 °C 2.2 °C 1018.8 hPa WNW 3.2 km/h 4.8 km/h 54% 0 mm 30 W/m2
18:52 11.2 °C 1.7 °C 1018.8 hPa NW 3.2 km/h 4.8 km/h 52% 0 mm 37 W/m2
18:58 11.2 °C 1.4 °C 1018.8 hPa WNW 4.8 km/h 4.8 km/h 51% 0 mm 35 W/m2
19:04 11.2 °C 2.2 °C 1019.2 hPa WNW 4.8 km/h 6.4 km/h 54% 0 mm 28 W/m2
19:10 11.2 °C 1.4 °C 1019.2 hPa NW 4.8 km/h 9.7 km/h 51% 0 mm 18 W/m2
19:16 11.2 °C 1.4 °C 1019.2 hPa WNW 4.8 km/h 9.7 km/h 51% 0 mm 18 W/m2
19:22 11.1 °C 1.3 °C 1019.2 hPa West 4.8 km/h 6.4 km/h 51% 0 mm 18 W/m2
19:28 11.1 °C 1.8 °C 1019.5 hPa NW 3.2 km/h 6.4 km/h 53% 0 mm 11 W/m2
19:34 11 °C 1.5 °C 1019.5 hPa WNW 4.8 km/h 6.4 km/h 52% 0 mm 9 W/m2
19:40 11 °C 1.5 °C 1019.5 hPa WNW 4.8 km/h 4.8 km/h 52% 0 mm 9 W/m2
19:46 10.9 °C 1.7 °C 1019.9 hPa WSW 3.2 km/h 4.8 km/h 53% 0 mm 7 W/m2
19:52 10.9 °C 1.7 °C 1019.9 hPa NW 1.6 km/h 3.2 km/h 53% 0 mm 5 W/m2
19:58 10.9 °C 1.7 °C 1020.2 hPa WSW 1.6 km/h 3.2 km/h 53% 0 mm 0 W/m2
20:04 10.9 °C 1.7 °C 1020.2 hPa Calm   1.6 km/h 53% 0 mm 0 W/m2
20:10 10.9 °C 1.7 °C 1020.2 hPa NW 1.6 km/h 1.6 km/h 53% 0 mm 0 W/m2
20:16 10.9 °C 1.7 °C 1020.2 hPa WNW 1.6 km/h 1.6 km/h 53% 0 mm 0 W/m2
20:22 10.9 °C 1.4 °C 1020.2 hPa WNW 1.6 km/h 1.6 km/h 52% 0 mm 0 W/m2
20:28 10.9 °C 1.4 °C 1020.2 hPa West 1.6 km/h 3.2 km/h 52% 0 mm 0 W/m2
20:34 10.8 °C 1.6 °C 1020.5 hPa West 1.6 km/h 1.6 km/h 53% 0 mm 0 W/m2
20:40 10.8 °C 1.8 °C 1020.5 hPa Calm     54% 0 mm 0 W/m2
20:46 10.6 °C 1.9 °C 1020.5 hPa WNW 1.6 km/h 1.6 km/h 55% 0 mm 0 W/m2
20:52 10.3 °C 1.9 °C 1020.9 hPa WNW 1.6 km/h 1.6 km/h 56% 0 mm 0 W/m2
20:58 10.1 °C 1.4 °C 1021.2 hPa Calm   1.6 km/h 55% 0 mm 0 W/m2
21:04 9.9 °C 1.6 °C 1021.6 hPa WNW 1.6 km/h 3.2 km/h 56% 0 mm 0 W/m2
21:10 9.8 °C 1.7 °C 1021.6 hPa Calm     57% 0 mm 0 W/m2
21:16 9.8 °C 1.2 °C 1021.6 hPa WNW 1.6 km/h 1.6 km/h 55% 0 mm 0 W/m2
21:22 9.8 °C 1.4 °C 1021.6 hPa WNW 1.6 km/h 1.6 km/h 56% 0 mm 0 W/m2
21:34 9.6 °C 1.2 °C 1021.6 hPa Calm   1.6 km/h 56% 0 mm 0 W/m2
21:40 9.4 °C 1.3 °C 1021.6 hPa Calm     57% 0 mm 0 W/m2
21:45 9.3 °C 1.2 °C 1021.6 hPa Calm     57% 0 mm 0 W/m2
21:52 9.3 °C 1.5 °C 1021.6 hPa Calm     58% 0 mm 0 W/m2
21:58 9.2 °C 1.3 °C 1021.6 hPa Calm     58% 0 mm 0 W/m2
22:04 8.9 °C 1.3 °C 1021.6 hPa Calm     59% 0 mm 0 W/m2
22:10 8.7 °C 1.6 °C 1021.6 hPa Calm     61% 0 mm 0 W/m2
22:16 8.4 °C 1.1 °C 1021.2 hPa Calm     60% 0 mm 0 W/m2
22:22 8.2 °C 1.1 °C 1021.6 hPa Calm     61% 0 mm 0 W/m2
22:28 8.1 °C 1.5 °C 1021.9 hPa Calm     63% 0 mm 0 W/m2
22:34 8 °C 1.2 °C 1021.9 hPa Calm     62% 0 mm 0 W/m2
22:40 7.9 °C 1.1 °C 1022.2 hPa Calm     62% 0 mm 0 W/m2
22:46 7.8 °C 1.7 °C 1022.6 hPa Calm     65% 0 mm 0 W/m2
22:52 7.6 °C 1.4 °C 1022.9 hPa Calm     65% 0 mm 0 W/m2
22:58 7.4 °C 1.2 °C 1022.6 hPa Calm     65% 0 mm 0 W/m2
23:04 7.3 °C 1.4 °C 1022.6 hPa Calm     66% 0 mm 0 W/m2
23:10 7.3 °C 1.3 °C 1022.6 hPa Calm     66% 0 mm 0 W/m2
23:15 7.2 °C 1.3 °C 1022.6 hPa Calm     66% 0 mm 0 W/m2
23:22 7.1 °C 1.4 °C 1022.6 hPa Calm     67% 0 mm 0 W/m2
23:28 7.1 °C 1.3 °C 1022.6 hPa Calm     67% 0 mm 0 W/m2
23:34 7.1 °C 1.1 °C 1022.9 hPa Calm   1.6 km/h 66% 0 mm 0 W/m2
23:39 7.1 °C 0.9 °C 1022.6 hPa Calm     65% 0 mm 0 W/m2
23:46 7.4 °C 1 °C 1022.6 hPa Calm   1.6 km/h 64% 0 mm 0 W/m2
23:52 7.4 °C 1.1 °C 1022.9 hPa Calm   1.6 km/h 64% 0 mm 0 W/m2
23:58 7.6 °C 0.9 °C 1022.9 hPa Calm   1.6 km/h 63% 0 mm 0 W/m2
Country Meadow, Clay, NY, USA
Compliments of Weather Underground - 2 mb